createdAt,value
2019-01-17T00:01:18.383Z,98399.26
2019-01-17T00:04:19.118Z,98395.34
2019-01-17T00:07:10.532Z,98256.72
2019-01-17T00:10:01.944Z,98400.24
2019-01-17T00:12:45.169Z,98392.59
2019-01-17T00:15:34.033Z,98391.49
2019-01-17T00:18:31.406Z,98391.49
2019-01-17T00:21:11.202Z,98372.55
2019-01-17T00:23:53.151Z,98384.65
2019-01-17T00:26:40.506Z,98384.65
2019-01-17T00:29:27.074Z,98377.87
2019-01-17T00:32:20.888Z,98374.41
2019-01-17T00:35:09.350Z,98380.67
2019-01-17T00:38:01.297Z,98380.66
2019-01-17T00:41:07.799Z,98380.66
2019-01-17T00:44:03.677Z,98375.06
2019-01-17T00:46:50.790Z,98381.89
2019-01-17T00:49:57.496Z,98373.56
2019-01-17T00:52:46.512Z,98384.56
2019-01-17T00:55:44.266Z,98383.58
2019-01-17T00:58:35.619Z,98382.83
2019-01-17T01:01:27.491Z,98382.50
2019-01-17T01:04:14.717Z,98387.30
2019-01-17T01:06:55.591Z,98384.30
2019-01-17T01:09:41.656Z,98383.23
2019-01-17T01:12:25.837Z,98387.44
2019-01-17T01:15:27.073Z,98385.69
2019-01-17T01:18:24.754Z,98386.23
2019-01-17T01:21:07.165Z,98385.97
2019-01-17T01:23:54.024Z,98386.52
2019-01-17T01:26:51.591Z,98383.66
2019-01-17T01:29:40.611Z,98387.66
2019-01-17T01:32:18.659Z,98387.66
2019-01-17T01:35:07.237Z,98396.73
2019-01-17T01:38:01.812Z,98392.48
2019-01-17T01:40:47.016Z,98392.48
2019-01-17T01:43:34.086Z,98399.67
2019-01-17T01:46:20.465Z,98406.34
2019-01-17T01:49:00.806Z,98406.20
2019-01-17T01:51:52.216Z,98412.32
2019-01-17T01:54:22.281Z,98412.32
2019-01-17T01:56:51.888Z,98418.47
2019-01-17T01:59:21.674Z,98422.00
2019-01-17T02:01:51.370Z,98424.50
2019-01-17T02:04:20.925Z,98427.39
2019-01-17T02:06:50.665Z,98431.71
2019-01-17T02:09:20.716Z,98426.80
2019-01-17T02:11:50.229Z,98440.05
2019-01-17T02:14:20.816Z,98436.88
2019-01-17T02:16:50.357Z,98286.92
2019-01-17T02:19:19.902Z,98446.09
2019-01-17T02:21:49.970Z,98450.59
2019-01-17T02:24:19.554Z,98450.47
2019-01-17T02:26:49.140Z,98454.02
2019-01-17T02:29:18.900Z,98452.55
2019-01-17T02:31:48.415Z,98452.55
2019-01-17T02:34:18.147Z,98457.50
2019-01-17T02:36:47.899Z,98457.33
2019-01-17T02:39:17.750Z,98458.70
2019-01-17T02:41:47.440Z,98463.01
2019-01-17T02:44:17.342Z,98463.69
2019-01-17T02:46:47.025Z,98468.91
2019-01-17T02:49:16.736Z,98472.29
2019-01-17T02:51:46.816Z,98477.75
2019-01-17T02:54:16.535Z,98484.06
2019-01-17T02:56:46.413Z,98490.68
2019-01-17T02:59:16.222Z,98490.80
2019-01-17T03:01:46.122Z,98500.55
2019-01-17T03:04:16.206Z,98509.76
2019-01-17T03:06:46.136Z,98513.80
2019-01-17T03:09:15.837Z,98509.19
2019-01-17T03:11:45.493Z,98510.62
2019-01-17T03:14:18.183Z,98506.75
2019-01-17T03:16:47.818Z,98521.04
2019-01-17T03:19:17.564Z,98523.23
2019-01-17T03:21:47.199Z,98533.75
2019-01-17T03:24:17.173Z,98536.46
2019-01-17T03:26:46.767Z,98545.59
2019-01-17T03:29:16.922Z,98561.77
2019-01-17T03:31:46.438Z,98571.27
2019-01-17T03:34:17.720Z,98567.90
2019-01-17T03:36:47.505Z,98575.83
2019-01-17T03:39:17.414Z,98573.27
2019-01-17T03:41:47.100Z,98576.78
2019-01-17T03:44:17.052Z,98577.69
2019-01-17T03:46:46.749Z,98581.16
2019-01-17T03:49:16.549Z,98593.40
2019-01-17T03:51:46.508Z,98587.77
2019-01-17T03:54:16.623Z,98591.70
2019-01-17T03:56:46.574Z,98597.33
2019-01-17T03:59:16.328Z,98613.34
2019-01-17T04:01:46.324Z,98526.77
2019-01-17T04:04:16.223Z,98597.05
2019-01-17T04:06:47.383Z,98605.35
2019-01-17T04:09:17.365Z,98611.91
2019-01-17T04:11:46.919Z,98620.56
2019-01-17T04:14:16.491Z,98626.63
2019-01-17T04:16:46.575Z,98645.67
2019-01-17T04:19:16.423Z,98643.12
2019-01-17T04:21:46.136Z,98646.14
2019-01-17T04:24:17.337Z,98654.34
2019-01-17T04:26:46.991Z,98653.53
2019-01-17T04:29:16.585Z,98654.42
2019-01-17T04:31:46.609Z,98666.48
2019-01-17T04:34:17.029Z,98665.63
2019-01-17T04:36:46.654Z,98675.14
2019-01-17T04:39:16.829Z,98682.05
2019-01-17T04:41:46.485Z,98682.07
2019-01-17T04:44:16.185Z,98683.81
2019-01-17T04:46:46.341Z,98685.53
2019-01-17T04:49:16.129Z,98687.24
2019-01-17T04:51:45.936Z,98688.97
2019-01-17T04:54:15.744Z,98688.97
2019-01-17T04:56:45.372Z,98692.44
2019-01-17T04:59:15.180Z,98697.63
2019-01-17T05:01:45.220Z,98698.88
2019-01-17T05:04:15.252Z,98705.37
2019-01-17T05:06:45.038Z,98709.69
2019-01-17T05:09:15.131Z,98716.56
2019-01-17T05:11:44.987Z,98714.84
2019-01-17T05:14:14.934Z,98728.66
2019-01-17T05:16:44.924Z,98727.77
2019-01-17T05:19:14.839Z,98735.97
2019-01-17T05:21:44.381Z,98734.23
2019-01-17T05:24:14.296Z,98732.92
2019-01-17T05:26:44.260Z,98741.11
2019-01-17T05:29:13.966Z,98738.08
2019-01-17T05:31:43.804Z,98749.28
2019-01-17T05:34:13.482Z,98748.41
2019-01-17T05:36:43.102Z,98747.16
2019-01-17T05:39:12.873Z,98754.43
2019-01-17T05:41:42.486Z,98754.43
2019-01-17T05:44:12.062Z,98761.33
2019-01-17T05:46:41.933Z,98756.17
2019-01-17T05:49:11.582Z,98757.00
2019-01-17T05:51:43.171Z,98762.15
2019-01-17T05:54:12.776Z,98763.91
2019-01-17T05:56:42.400Z,98764.75
2019-01-17T05:59:11.986Z,98772.08
2019-01-17T06:01:44.487Z,98773.37
2019-01-17T06:04:13.501Z,98782.84
2019-01-17T06:06:43.708Z,98785.80
2019-01-17T06:09:13.413Z,98788.80
2019-01-17T06:11:43.230Z,98793.10
2019-01-17T06:14:12.987Z,98792.20
2019-01-17T06:16:42.788Z,98812.05
2019-01-17T06:19:12.449Z,98813.79
2019-01-17T06:21:42.275Z,98820.66
2019-01-17T06:24:11.976Z,98826.66
2019-01-17T06:26:41.520Z,98830.94
2019-01-17T06:29:11.188Z,98836.16
2019-01-17T06:31:40.930Z,98831.45
2019-01-17T06:34:10.849Z,98838.75
2019-01-17T06:36:40.897Z,98835.27
2019-01-17T06:39:10.692Z,98843.42
2019-01-17T06:41:40.401Z,98849.02
2019-01-17T06:44:10.087Z,98855.00
2019-01-17T06:46:39.641Z,98855.89
2019-01-17T06:49:09.196Z,98849.80
2019-01-17T06:51:39.024Z,98860.11
2019-01-17T06:54:08.597Z,98875.20
2019-01-17T06:56:38.293Z,98873.06
2019-01-17T06:59:08.099Z,98876.52
2019-01-17T07:01:38.095Z,98872.61
2019-01-17T07:04:07.693Z,98873.87
2019-01-17T07:06:37.452Z,98878.63
2019-01-17T07:09:09.158Z,98890.22
2019-01-17T07:11:39.063Z,98898.84
2019-01-17T07:14:08.569Z,98912.60
2019-01-17T07:16:38.249Z,98912.53
2019-01-17T07:19:08.007Z,98918.61
2019-01-17T07:21:37.559Z,98925.45
2019-01-17T07:24:07.263Z,98927.09
2019-01-17T07:26:37.028Z,98940.05
2019-01-17T07:29:06.831Z,98951.25
2019-01-17T07:31:36.417Z,98956.42
2019-01-17T07:34:06.297Z,98955.97
2019-01-17T07:36:36.131Z,98963.26
2019-01-17T07:39:08.395Z,98968.38
2019-01-17T07:41:50.730Z,98975.26
2019-01-17T07:44:20.779Z,98976.97
2019-01-17T07:46:50.430Z,98988.09
2019-01-17T07:49:20.017Z,99002.76
2019-01-17T07:51:49.967Z,99010.05
2019-01-17T07:54:19.690Z,99023.33
2019-01-17T07:56:49.229Z,99027.58
2019-01-17T07:59:18.925Z,99040.06
2019-01-17T08:01:48.443Z,99044.82
2019-01-17T08:04:18.054Z,99053.49
2019-01-17T08:06:47.830Z,99055.25
2019-01-17T08:09:17.543Z,99057.78
2019-01-17T08:11:47.220Z,99063.78
2019-01-17T08:14:16.891Z,99060.88
2019-01-17T08:16:46.432Z,99071.20
2019-01-17T08:19:16.267Z,99072.92
2019-01-17T08:21:46.195Z,99086.29
2019-01-17T08:24:15.989Z,99095.79
2019-01-17T08:26:45.983Z,99093.21
2019-01-17T08:29:16.031Z,99096.63
2019-01-17T08:31:45.864Z,99097.45
2019-01-17T08:34:15.507Z,99100.91
2019-01-17T08:36:45.427Z,99111.66
2019-01-17T08:39:15.273Z,99123.23
2019-01-17T08:41:45.004Z,99132.72
2019-01-17T08:44:14.976Z,99137.91
2019-01-17T08:46:44.818Z,99139.66
2019-01-17T08:49:14.764Z,99142.23
2019-01-17T08:51:44.474Z,99145.66
2019-01-17T08:54:14.176Z,99144.82
2019-01-17T08:56:43.841Z,99151.39
2019-01-17T08:59:13.708Z,99149.27
2019-01-17T09:01:43.455Z,99155.72
2019-01-17T09:04:13.113Z,99159.55
2019-01-17T09:06:43.089Z,99151.84
2019-01-17T09:09:12.928Z,99157.48
2019-01-17T09:11:42.777Z,99151.48
2019-01-17T09:14:12.866Z,99157.95
2019-01-17T09:16:42.791Z,99166.52
2019-01-17T09:19:12.358Z,99169.88
2019-01-17T09:21:42.407Z,99176.81
2019-01-17T09:24:12.231Z,99181.91
2019-01-17T09:26:41.888Z,99182.75
2019-01-17T09:29:11.501Z,99190.50
2019-01-17T09:31:41.038Z,99199.12
2019-01-17T09:34:22.606Z,99208.59
2019-01-17T09:36:52.205Z,99213.80
2019-01-17T09:39:21.732Z,99220.31
2019-01-17T09:41:51.464Z,99216.33
2019-01-17T09:44:21.150Z,99220.20
2019-01-17T09:46:50.753Z,99213.80
2019-01-17T09:49:20.579Z,99215.55
2019-01-17T09:51:50.126Z,99212.05
2019-01-17T09:54:19.740Z,99218.13
2019-01-17T09:56:49.494Z,99219.42
2019-01-17T09:59:19.020Z,99222.49
2019-01-17T10:01:48.656Z,99225.84
2019-01-17T10:04:18.490Z,99225.30
2019-01-17T10:06:48.082Z,99220.56
2019-01-17T10:09:17.663Z,99216.73
2019-01-17T10:11:47.528Z,99227.55
2019-01-17T10:14:17.208Z,99233.05
2019-01-17T10:17:17.927Z,99239.45
2019-01-17T10:19:56.692Z,99235.23
2019-01-17T10:22:43.585Z,99237.10
2019-01-17T10:25:41.559Z,99243.05
2019-01-17T10:29:00.133Z,99248.20
2019-01-17T10:31:57.060Z,99256.95
2019-01-17T10:35:11.408Z,99246.86
2019-01-17T10:38:22.816Z,99246.50
2019-01-17T10:41:11.859Z,99249.25
2019-01-17T10:44:27.957Z,99244.92
2019-01-17T10:47:41.550Z,99179.34
2019-01-17T10:51:03.581Z,99265.76
2019-01-17T10:53:59.054Z,99276.20
2019-01-17T10:57:13.599Z,99271.50
2019-01-17T11:00:10.936Z,99279.67
2019-01-17T11:03:09.160Z,99259.77
2019-01-17T11:06:09.548Z,99270.20
2019-01-17T11:09:16.528Z,99271.80
2019-01-17T11:12:21.293Z,99272.99
2019-01-17T11:15:20.310Z,99268.38
2019-01-17T11:18:26.086Z,99279.73
2019-01-17T11:21:23.543Z,99265.45
2019-01-17T11:24:22.152Z,99270.05
2019-01-17T11:27:32.331Z,99271.39
2019-01-17T11:30:46.290Z,99275.27
2019-01-17T11:33:43.719Z,99295.11
2019-01-17T11:36:51.207Z,99289.91
2019-01-17T11:39:50.011Z,99293.36
2019-01-17T11:43:08.031Z,99294.23
2019-01-17T11:45:48.328Z,99298.05
2019-01-17T11:48:49.919Z,99303.28
2019-01-17T11:51:50.908Z,99298.48
2019-01-17T11:54:33.712Z,99305.03
2019-01-17T11:57:32.794Z,99314.86
2019-01-17T12:00:45.607Z,99330.00
2019-01-17T12:03:53.397Z,99333.83
2019-01-17T12:06:23.240Z,99333.95
2019-01-17T12:08:52.978Z,99340.02
2019-01-17T12:11:22.658Z,99337.07
2019-01-17T12:13:52.475Z,99337.70
2019-01-17T12:16:22.297Z,99338.57
2019-01-17T12:18:51.792Z,99342.52
2019-01-17T12:21:21.563Z,99350.58
2019-01-17T12:23:51.399Z,99349.03
2019-01-17T12:26:21.109Z,99353.75
2019-01-17T12:28:51.021Z,99356.21
2019-01-17T12:31:20.702Z,99363.50
2019-01-17T12:33:50.377Z,99361.84
2019-01-17T12:36:20.198Z,99360.91
2019-01-17T12:38:50.028Z,99363.84
2019-01-17T12:41:19.705Z,99373.19
2019-01-17T12:43:49.565Z,99377.19
2019-01-17T12:46:19.516Z,99371.08
2019-01-17T12:48:49.159Z,99372.84
2019-01-17T12:51:18.972Z,99375.70
2019-01-17T12:53:48.773Z,99381.28
2019-01-17T12:56:18.532Z,99380.80
2019-01-17T12:58:48.177Z,99377.94
2019-01-17T13:01:18.082Z,99381.34
2019-01-17T13:03:47.811Z,99391.16
2019-01-17T13:06:17.523Z,99390.33
2019-01-17T13:08:47.356Z,99391.63
2019-01-17T13:11:17.204Z,99401.51
2019-01-17T13:13:47.008Z,99401.91
2019-01-17T13:16:16.670Z,99400.21
2019-01-17T13:18:46.425Z,99413.25
2019-01-17T13:21:16.143Z,99422.63
2019-01-17T13:23:46.063Z,99416.61
2019-01-17T13:26:15.907Z,99423.11
2019-01-17T13:28:45.458Z,99421.84
2019-01-17T13:31:15.523Z,99432.97
2019-01-17T13:33:45.314Z,99444.21
2019-01-17T13:36:14.995Z,99448.48
2019-01-17T13:38:45.059Z,99443.32
2019-01-17T13:41:14.807Z,99451.08
2019-01-17T13:43:44.996Z,99452.65
2019-01-17T13:46:14.936Z,99441.48
2019-01-17T13:48:44.769Z,99451.00
2019-01-17T13:51:14.429Z,99458.37
2019-01-17T13:53:44.364Z,99456.73
2019-01-17T13:56:14.284Z,99468.70
2019-01-17T13:58:44.226Z,99469.51
2019-01-17T14:01:14.178Z,99472.58
2019-01-17T14:03:43.850Z,99473.05
2019-01-17T14:06:13.515Z,99473.78
2019-01-17T14:08:43.369Z,99477.05
2019-01-17T14:11:13.048Z,99486.19
2019-01-17T14:13:42.997Z,99481.95
2019-01-17T14:16:13.022Z,99483.56
2019-01-17T14:18:42.871Z,99488.73
2019-01-17T14:21:12.740Z,99499.11
2019-01-17T14:23:42.503Z,99505.47
2019-01-17T14:26:12.304Z,99504.61
2019-01-17T14:28:42.021Z,99512.98
2019-01-17T14:31:11.884Z,99521.93
2019-01-17T14:33:41.667Z,99529.60
2019-01-17T14:36:11.286Z,99530.45
2019-01-17T14:38:41.043Z,99541.18
2019-01-17T14:41:10.560Z,99543.13
2019-01-17T14:43:40.240Z,99559.12
2019-01-17T14:46:10.072Z,99553.80
2019-01-17T14:48:39.660Z,99571.88
2019-01-17T14:51:09.232Z,99569.05
2019-01-17T14:53:39.286Z,99577.35
2019-01-17T14:56:08.906Z,99585.02
2019-01-17T14:58:38.542Z,99588.91
2019-01-17T15:01:08.340Z,99596.58
2019-01-17T15:03:37.922Z,99597.46
2019-01-17T15:06:07.654Z,99608.77
2019-01-17T15:08:37.488Z,99613.93
2019-01-17T15:11:07.113Z,99624.08
2019-01-17T15:13:36.651Z,99632.25
2019-01-17T15:16:06.508Z,99630.06
2019-01-17T15:18:36.156Z,99634.41
2019-01-17T15:21:05.920Z,99640.28
2019-01-17T15:23:35.654Z,99642.86
2019-01-17T15:26:05.606Z,99654.80
2019-01-17T15:28:35.208Z,99662.59
2019-01-17T15:31:05.368Z,99659.69
2019-01-17T15:33:35.172Z,99670.83
2019-01-17T15:36:04.800Z,99683.74
2019-01-17T15:38:34.496Z,99693.16
2019-01-17T15:41:04.245Z,99685.31
2019-01-17T15:43:33.869Z,99700.75
2019-01-17T15:46:04.303Z,99710.25
2019-01-17T15:48:34.104Z,99717.44
2019-01-17T15:51:03.686Z,99723.48
2019-01-17T15:53:33.546Z,99729.14
2019-01-17T15:56:03.295Z,99727.25
2019-01-17T15:58:32.856Z,99732.33
2019-01-17T16:01:02.951Z,99728.02
2019-01-17T16:03:33.017Z,99742.73
2019-01-17T16:06:02.648Z,99751.19
2019-01-17T16:08:32.504Z,99758.02
2019-01-17T16:11:02.141Z,99778.09
2019-01-17T16:13:31.918Z,99766.56
2019-01-17T16:16:01.830Z,99770.81
2019-01-17T16:18:31.502Z,99776.56
2019-01-17T16:21:01.186Z,99776.56
2019-01-17T16:23:30.923Z,99788.14
2019-01-17T16:26:00.492Z,99797.59
2019-01-17T16:28:30.232Z,99804.83
2019-01-17T16:31:00.055Z,99803.95
2019-01-17T16:33:29.678Z,99811.69
2019-01-17T16:35:59.333Z,99821.00
2019-01-17T16:38:29.353Z,99822.77
2019-01-17T16:40:58.901Z,99836.58
2019-01-17T16:43:28.661Z,99851.95
2019-01-17T16:45:58.322Z,99863.19
2019-01-17T16:48:28.059Z,99868.86
2019-01-17T16:50:57.841Z,99875.81
2019-01-17T16:53:27.516Z,99875.14
2019-01-17T16:55:57.066Z,99881.94
2019-01-17T16:58:26.705Z,99890.58
2019-01-17T17:00:56.437Z,99892.69
2019-01-17T17:03:26.080Z,99890.83
2019-01-17T17:05:55.599Z,99909.27
2019-01-17T17:08:25.893Z,99910.92
2019-01-17T17:10:55.496Z,99916.31
2019-01-17T17:13:25.135Z,99913.23
2019-01-17T17:15:54.875Z,99913.50
2019-01-17T17:18:24.524Z,99925.30
2019-01-17T17:20:54.092Z,99927.61
2019-01-17T17:23:23.808Z,99935.89
2019-01-17T17:25:53.367Z,99933.75
2019-01-17T17:28:22.928Z,99937.34
2019-01-17T17:30:52.689Z,99947.55
2019-01-17T17:33:22.336Z,99955.39
2019-01-17T17:35:51.943Z,99955.28
2019-01-17T17:38:21.858Z,99967.84
2019-01-17T17:40:51.634Z,99981.66
2019-01-17T17:43:21.278Z,99996.03
2019-01-17T17:45:51.215Z,100004.23
2019-01-17T17:48:20.760Z,100012.38
2019-01-17T17:50:50.318Z,100017.38
2019-01-17T17:53:20.090Z,100023.89
2019-01-17T17:55:49.659Z,100030.89
2019-01-17T17:58:19.245Z,100025.62
2019-01-17T18:01:11.037Z,100031.36
2019-01-17T18:03:40.776Z,100008.98
2019-01-17T18:06:10.543Z,100044.58
2019-01-17T18:08:40.431Z,100050.09
2019-01-17T18:11:10.090Z,100049.66
2019-01-17T18:13:39.944Z,100052.52
2019-01-17T18:16:09.891Z,100061.58
2019-01-17T18:18:39.609Z,100064.27
2019-01-17T18:21:09.228Z,100076.95
2019-01-17T18:23:38.896Z,100090.77
2019-01-17T18:26:08.795Z,100101.27
2019-01-17T18:28:39.739Z,100111.02
2019-01-17T18:31:09.553Z,100122.72
2019-01-17T18:33:39.361Z,100129.61
2019-01-17T18:36:09.131Z,100131.51
2019-01-17T18:38:38.891Z,100137.91
2019-01-17T18:41:08.597Z,100140.88
2019-01-17T18:43:38.275Z,100153.20
2019-01-17T18:46:08.127Z,100154.81
2019-01-17T18:48:37.845Z,100147.93
2019-01-17T18:51:07.745Z,100144.43
2019-01-17T18:53:37.648Z,100151.43
2019-01-17T18:56:07.320Z,100162.22
2019-01-17T18:58:37.044Z,100160.69
2019-01-17T19:01:06.828Z,100163.14
2019-01-17T19:03:36.556Z,100171.02
2019-01-17T19:06:06.530Z,100176.45
2019-01-17T19:08:36.366Z,100189.74
2019-01-17T19:11:06.616Z,100200.58
2019-01-17T19:13:36.333Z,100206.13
2019-01-17T19:16:06.466Z,100202.14
2019-01-17T19:18:36.296Z,100203.22
2019-01-17T19:21:05.858Z,100197.09
2019-01-17T19:23:35.573Z,100215.12
2019-01-17T19:26:05.253Z,100230.58
2019-01-17T19:28:35.032Z,100237.25
2019-01-17T19:31:04.873Z,100241.95
2019-01-17T19:33:34.710Z,100249.65
2019-01-17T19:36:04.604Z,100254.92
2019-01-17T19:38:34.542Z,100256.80
2019-01-17T19:41:04.767Z,100262.78
2019-01-17T19:43:34.391Z,100255.05
2019-01-17T19:46:04.445Z,100262.91
2019-01-17T19:48:34.275Z,100267.35
2019-01-17T19:51:04.264Z,100268.11
2019-01-17T19:53:35.071Z,100268.38
2019-01-17T19:56:05.148Z,100268.69
2019-01-17T19:58:34.906Z,100267.00
2019-01-17T20:01:05.681Z,100271.18
2019-01-17T20:03:35.668Z,100277.97
2019-01-17T20:06:05.724Z,100273.00
2019-01-17T20:08:35.691Z,100282.67
2019-01-17T20:11:05.453Z,100287.65
2019-01-17T20:13:35.292Z,100294.70
2019-01-17T20:16:05.502Z,100304.16
2019-01-17T20:18:35.636Z,100304.86
2019-01-17T20:21:05.498Z,100311.35
2019-01-17T20:23:35.234Z,100312.45
2019-01-17T20:26:04.975Z,100325.06
2019-01-17T20:28:35.847Z,100331.49
2019-01-17T20:31:06.005Z,100338.20
2019-01-17T20:33:36.787Z,100345.78
2019-01-17T20:36:06.798Z,100346.48
2019-01-17T20:38:36.566Z,100357.80
2019-01-17T20:41:06.723Z,100356.42
2019-01-17T20:43:36.610Z,100367.08
2019-01-17T20:46:06.614Z,100369.51
2019-01-17T20:48:36.392Z,100377.17
2019-01-17T20:51:06.153Z,100382.52
2019-01-17T20:53:36.108Z,100388.60
2019-01-17T20:56:06.193Z,100390.66
2019-01-17T20:58:42.161Z,100383.68
2019-01-17T21:01:50.651Z,100386.20
2019-01-17T21:04:20.259Z,100394.86
2019-01-17T21:06:49.973Z,100395.52
2019-01-17T21:09:19.884Z,100392.95
2019-01-17T21:11:49.506Z,100395.00
2019-01-17T21:14:19.273Z,100409.36
2019-01-17T21:16:49.032Z,100407.09
2019-01-17T21:19:18.758Z,100408.53
2019-01-17T21:21:48.356Z,100416.45
2019-01-17T21:24:18.249Z,100411.65
2019-01-17T21:26:47.858Z,100412.68
2019-01-17T21:29:17.614Z,100417.20
2019-01-17T21:31:47.606Z,100424.38
2019-01-17T21:34:17.306Z,100426.29
2019-01-17T21:36:47.044Z,100431.30
2019-01-17T21:39:16.768Z,100430.35
2019-01-17T21:41:46.443Z,100436.30
2019-01-17T21:44:16.271Z,100438.41
2019-01-17T21:46:46.291Z,100444.16
2019-01-17T21:49:16.164Z,100449.00
2019-01-17T21:51:46.178Z,100449.54
2019-01-17T21:54:16.270Z,100449.21
2019-01-17T21:56:46.353Z,100453.35
2019-01-17T21:59:16.162Z,100450.03
2019-01-17T22:01:46.267Z,100268.89
2019-01-17T22:04:16.170Z,100468.09
2019-01-17T22:06:46.193Z,100473.59
2019-01-17T22:09:16.179Z,100479.19
2019-01-17T22:11:46.141Z,100480.75
2019-01-17T22:14:16.003Z,100487.81
2019-01-17T22:16:45.803Z,100495.47
2019-01-17T22:19:15.511Z,100493.30
2019-01-17T22:21:45.369Z,100486.68
2019-01-17T22:24:49.968Z,100491.10
2019-01-17T22:27:19.645Z,100501.86
2019-01-17T22:29:49.259Z,100504.34
2019-01-17T22:32:18.869Z,100505.02
2019-01-17T22:34:48.450Z,100504.11
2019-01-17T22:37:18.061Z,100507.57
2019-01-17T22:39:47.807Z,100508.69
2019-01-17T22:42:17.335Z,100519.77
2019-01-17T22:44:47.125Z,100514.19
2019-01-17T22:47:16.797Z,100512.77
2019-01-17T22:49:46.542Z,100519.52
2019-01-17T22:52:16.368Z,100432.72
2019-01-17T22:54:46.344Z,100521.10
2019-01-17T22:57:18.126Z,100523.67
2019-01-17T22:59:47.828Z,100526.55
2019-01-17T23:02:17.339Z,100534.83
2019-01-17T23:04:46.870Z,100541.69
2019-01-17T23:07:16.705Z,100534.38
2019-01-17T23:09:46.586Z,100533.83
2019-01-17T23:12:16.334Z,100536.55
2019-01-17T23:14:46.337Z,100538.22
2019-01-17T23:17:16.209Z,100547.31
2019-01-17T23:19:46.070Z,100543.38
2019-01-17T23:22:16.103Z,100555.41
2019-01-17T23:24:46.279Z,100369.31
2019-01-17T23:27:16.140Z,100552.41
2019-01-17T23:29:46.075Z,100552.98
2019-01-17T23:32:15.678Z,100550.94
2019-01-17T23:34:45.503Z,100554.55
2019-01-17T23:37:15.639Z,100556.08
2019-01-17T23:39:45.548Z,100554.40
2019-01-17T23:42:15.401Z,100557.12
2019-01-17T23:44:45.399Z,100552.28
2019-01-17T23:47:15.281Z,100560.00
2019-01-17T23:49:45.236Z,100555.02
2019-01-17T23:52:14.964Z,100558.53
2019-01-17T23:54:44.970Z,100560.15
2019-01-17T23:57:14.838Z,100564.34
2019-01-17T23:59:44.418Z,100567.25
